createdAt,value
2022-11-15T00:02:34.442Z,9.66
2022-11-15T00:05:20.824Z,9.58
2022-11-15T00:08:08.939Z,9.65
2022-11-15T00:10:59.080Z,9.66
2022-11-15T00:13:45.394Z,9.64
2022-11-15T00:16:31.752Z,9.60
2022-11-15T00:19:18.157Z,9.62
2022-11-15T00:22:04.393Z,9.72
2022-11-15T00:24:52.088Z,9.58
2022-11-15T00:27:38.467Z,9.71
2022-11-15T00:30:24.796Z,9.51
2022-11-15T00:33:11.545Z,9.66
2022-11-15T00:36:03.219Z,9.66
2022-11-15T00:38:49.682Z,9.60
2022-11-15T00:41:37.309Z,9.73
2022-11-15T00:44:23.701Z,9.76
2022-11-15T00:47:10.116Z,9.62
2022-11-15T00:49:56.396Z,9.60
2022-11-15T00:52:42.687Z,9.61
2022-11-15T00:55:29.135Z,9.67
2022-11-15T00:58:16.852Z,9.66
2022-11-15T01:01:11.730Z,9.61
2022-11-15T01:04:01.300Z,9.67
2022-11-15T01:06:48.182Z,9.54
2022-11-15T01:09:34.868Z,9.63
2022-11-15T01:12:21.549Z,9.40
2022-11-15T01:15:10.380Z,9.45
2022-11-15T01:17:57.009Z,9.43
2022-11-15T01:20:43.983Z,9.45
2022-11-15T01:23:30.893Z,9.58
2022-11-15T01:26:18.404Z,9.49
2022-11-15T01:29:05.206Z,9.51
2022-11-15T01:31:55.579Z,9.38
2022-11-15T01:34:42.213Z,9.32
2022-11-15T01:37:28.575Z,9.51
2022-11-15T01:40:15.196Z,9.43
2022-11-15T01:43:01.717Z,9.33
2022-11-15T01:45:53.288Z,9.38
2022-11-15T01:48:41.299Z,9.13
2022-11-15T01:51:33.210Z,9.12
2022-11-15T01:54:23.426Z,9.28
2022-11-15T01:57:12.447Z,9.37
2022-11-15T02:00:00.907Z,9.37
2022-11-15T02:02:47.279Z,9.33
2022-11-15T02:05:35.600Z,9.27
2022-11-15T02:08:22.140Z,9.43
2022-11-15T02:11:10.634Z,9.25
2022-11-15T02:13:57.794Z,9.07
2022-11-15T02:16:57.153Z,9.22
2022-11-15T02:20:16.393Z,9.36
2022-11-15T02:23:45.278Z,9.20
2022-11-15T02:27:13.197Z,9.22
2022-11-15T02:30:14.360Z,9.13
2022-11-15T02:33:06.189Z,9.27
2022-11-15T02:35:59.455Z,9.28
2022-11-15T02:38:54.133Z,9.32
2022-11-15T02:41:50.229Z,9.17
2022-11-15T02:44:41.451Z,9.25
2022-11-15T02:47:32.984Z,9.09
2022-11-15T02:50:22.594Z,9.18
2022-11-15T02:53:09.695Z,9.21
2022-11-15T02:55:58.651Z,9.23
2022-11-15T02:59:08.088Z,9.17
2022-11-15T03:02:10.911Z,9.11
2022-11-15T03:05:04.076Z,9.18
2022-11-15T03:08:02.092Z,9.27
2022-11-15T03:10:59.831Z,9.24
2022-11-15T03:13:55.126Z,9.20
2022-11-15T03:16:47.311Z,9.17
2022-11-15T03:19:39.766Z,9.24
2022-11-15T03:22:31.233Z,9.26
2022-11-15T03:25:21.587Z,9.20
2022-11-15T03:28:11.506Z,9.27
2022-11-15T03:30:58.939Z,9.24
2022-11-15T03:33:45.768Z,9.19
2022-11-15T03:36:35.316Z,9.24
2022-11-15T03:39:24.621Z,9.27
2022-11-15T03:42:22.566Z,9.26
2022-11-15T03:45:16.753Z,9.22
2022-11-15T03:48:08.454Z,9.26
2022-11-15T03:50:55.463Z,9.17
2022-11-15T03:53:43.283Z,9.17
2022-11-15T03:56:31.520Z,9.10
2022-11-15T03:59:18.196Z,9.26
2022-11-15T04:02:04.526Z,9.24
2022-11-15T04:04:51.108Z,9.25
2022-11-15T04:07:37.524Z,9.29
2022-11-15T04:10:24.345Z,9.19
2022-11-15T04:13:12.175Z,9.09
2022-11-15T04:15:58.826Z,8.94
2022-11-15T04:18:45.286Z,9.12
2022-11-15T04:21:48.885Z,9.18
2022-11-15T04:24:35.356Z,9.27
2022-11-15T04:27:21.698Z,9.15
2022-11-15T04:30:11.121Z,9.26
2022-11-15T04:32:57.746Z,9.19
2022-11-15T04:35:44.916Z,9.14
2022-11-15T04:38:30.211Z,9.11
2022-11-15T04:41:16.679Z,9.20
2022-11-15T04:44:02.984Z,9.13
2022-11-15T04:46:50.801Z,9.18
2022-11-15T04:49:37.405Z,9.13
2022-11-15T04:52:23.668Z,9.14
2022-11-15T04:55:10.491Z,9.12
2022-11-15T04:58:01.616Z,9.20
2022-11-15T05:00:48.387Z,9.29
2022-11-15T05:04:05.289Z,9.21
2022-11-15T05:06:53.590Z,9.09
2022-11-15T05:09:40.708Z,9.14
2022-11-15T05:12:26.953Z,9.22
2022-11-15T05:15:13.296Z,9.07
2022-11-15T05:18:01.249Z,9.05
2022-11-15T05:20:49.191Z,9.15
2022-11-15T05:23:35.921Z,9.25
2022-11-15T05:26:22.539Z,9.34
2022-11-15T05:29:12.388Z,9.41
2022-11-15T05:31:59.331Z,9.47
2022-11-15T05:34:45.912Z,9.50
2022-11-15T05:37:33.666Z,9.47
2022-11-15T05:40:20.115Z,9.50
2022-11-15T05:43:07.230Z,9.26
2022-11-15T05:45:53.557Z,9.23
2022-11-15T05:48:42.803Z,9.12
2022-11-15T05:51:31.392Z,9.39
2022-11-15T05:54:21.403Z,9.12
2022-11-15T05:57:08.043Z,9.10
2022-11-15T05:59:55.911Z,9.11
2022-11-15T06:02:42.138Z,9.33
2022-11-15T06:05:28.421Z,9.01
2022-11-15T06:08:14.795Z,9.14
2022-11-15T06:11:07.208Z,9.24
2022-11-15T06:13:53.490Z,9.28
2022-11-15T06:16:39.872Z,9.23
2022-11-15T06:19:26.453Z,9.32
2022-11-15T06:22:12.577Z,9.35
2022-11-15T06:25:04.082Z,9.32
2022-11-15T06:27:55.248Z,9.16
2022-11-15T06:30:41.897Z,9.23
2022-11-15T06:33:28.274Z,9.21
2022-11-15T06:36:17.918Z,9.30
2022-11-15T06:39:05.705Z,9.28
2022-11-15T06:41:52.337Z,9.05
2022-11-15T06:44:40.164Z,9.29
2022-11-15T06:47:26.478Z,9.24
2022-11-15T06:50:12.960Z,9.33
2022-11-15T06:53:04.028Z,9.37
2022-11-15T06:55:55.010Z,9.15
2022-11-15T06:58:42.360Z,9.24
2022-11-15T07:01:30.128Z,9.10
2022-11-15T07:04:19.602Z,9.29
2022-11-15T07:07:06.290Z,9.24
2022-11-15T07:09:52.499Z,9.27
2022-11-15T07:12:38.722Z,9.44
2022-11-15T07:15:27.162Z,9.57
2022-11-15T07:18:14.694Z,9.57
2022-11-15T07:21:03.848Z,9.71
2022-11-15T07:23:50.436Z,9.74
2022-11-15T07:26:36.774Z,9.71
2022-11-15T07:29:23.084Z,9.75
2022-11-15T07:32:09.313Z,9.77
2022-11-15T07:34:57.105Z,9.72
2022-11-15T07:37:43.374Z,9.65
2022-11-15T07:40:32.434Z,9.83
2022-11-15T07:43:19.123Z,9.78
2022-11-15T07:46:09.993Z,9.87
2022-11-15T07:48:56.337Z,9.84
2022-11-15T07:51:44.000Z,9.97
2022-11-15T07:54:30.310Z,9.91
2022-11-15T07:57:16.711Z,10.03
2022-11-15T08:00:03.185Z,10.15
2022-11-15T08:02:49.858Z,10.22
2022-11-15T08:05:37.187Z,10.31
2022-11-15T08:08:24.934Z,10.27
2022-11-15T08:11:11.275Z,10.41
2022-11-15T08:13:57.702Z,10.45
2022-11-15T08:16:44.272Z,10.49
2022-11-15T08:19:30.533Z,10.52
2022-11-15T08:22:16.831Z,10.60
2022-11-15T08:25:04.791Z,10.63
2022-11-15T08:27:53.521Z,10.62
2022-11-15T08:30:42.966Z,10.76
2022-11-15T08:33:30.273Z,10.86
2022-11-15T08:36:18.927Z,10.88
2022-11-15T08:39:05.984Z,10.64
2022-11-15T08:41:54.453Z,10.62
2022-11-15T08:44:41.007Z,10.49
2022-11-15T08:47:27.456Z,10.92
2022-11-15T08:50:14.151Z,11.06
2022-11-15T08:53:06.773Z,11.07
2022-11-15T08:55:53.217Z,11.28
2022-11-15T08:58:41.309Z,11.39
2022-11-15T09:01:28.193Z,11.39
2022-11-15T09:04:15.129Z,11.42
2022-11-15T09:07:01.408Z,11.45
2022-11-15T09:09:47.755Z,11.69
2022-11-15T09:12:34.414Z,11.66
2022-11-15T09:15:22.286Z,11.74
2022-11-15T09:18:08.805Z,12.10
2022-11-15T09:20:57.745Z,12.56
2022-11-15T09:23:44.441Z,13.14
2022-11-15T09:26:30.740Z,13.60
2022-11-15T09:29:17.272Z,13.92
2022-11-15T09:32:05.406Z,14.02
2022-11-15T09:34:52.048Z,14.50
2022-11-15T09:37:38.632Z,14.64
2022-11-15T09:40:27.261Z,14.57
2022-11-15T09:43:31.161Z,14.91
2022-11-15T09:46:23.651Z,15.05
2022-11-15T09:49:20.475Z,15.18
2022-11-15T09:51:56.870Z,14.95
2022-11-15T09:57:20.734Z,15.27
2022-11-15T10:00:23.773Z,15.20
2022-11-15T10:03:06.473Z,15.33
2022-11-15T10:05:40.599Z,15.50
2022-11-15T10:08:21.939Z,15.36
2022-11-15T10:11:09.641Z,15.46
2022-11-15T10:13:45.322Z,15.33
2022-11-15T10:16:27.945Z,15.87
2022-11-15T10:19:06.056Z,16.23
2022-11-15T10:21:47.427Z,15.23
2022-11-15T10:24:21.287Z,15.48
2022-11-15T10:26:49.860Z,15.40
2022-11-15T10:29:26.488Z,15.60
2022-11-15T10:31:55.423Z,15.83
2022-11-15T10:34:25.944Z,15.93
2022-11-15T10:36:59.264Z,16.20
2022-11-15T10:39:28.278Z,16.50
2022-11-15T10:41:56.634Z,16.46
2022-11-15T10:44:30.665Z,16.76
2022-11-15T10:47:25.170Z,16.42
2022-11-15T10:49:59.306Z,16.20
2022-11-15T10:52:30.592Z,16.33
2022-11-15T10:55:05.100Z,16.60
2022-11-15T10:57:38.433Z,17.04
2022-11-15T11:00:08.081Z,16.08
2022-11-15T11:02:38.787Z,16.39
2022-11-15T11:05:26.673Z,16.71
2022-11-15T11:08:00.742Z,16.48
2022-11-15T11:10:51.440Z,16.89
2022-11-15T11:13:24.321Z,17.30
2022-11-15T11:15:59.122Z,17.20
2022-11-15T11:18:32.321Z,17.02
2022-11-15T11:21:04.970Z,17.49
2022-11-15T11:23:48.975Z,17.81
2022-11-15T11:26:34.823Z,17.67
2022-11-15T11:29:13.660Z,17.79
2022-11-15T11:31:52.067Z,17.62
2022-11-15T11:34:34.892Z,17.76
2022-11-15T11:37:12.183Z,17.71
2022-11-15T11:39:53.147Z,17.65
2022-11-15T11:42:42.175Z,17.97
2022-11-15T11:45:21.176Z,18.01
2022-11-15T11:47:53.333Z,17.96
2022-11-15T11:50:23.702Z,17.76
2022-11-15T11:53:03.625Z,17.87
2022-11-15T11:55:38.919Z,18.32
2022-11-15T11:58:15.039Z,17.99
2022-11-15T12:00:47.661Z,17.99
2022-11-15T12:03:24.328Z,17.86
2022-11-15T12:05:56.503Z,18.19
2022-11-15T12:08:35.579Z,18.39
2022-11-15T12:11:12.196Z,17.89
2022-11-15T12:13:40.971Z,18.16
2022-11-15T12:16:19.510Z,17.97
2022-11-15T12:18:51.307Z,17.94
2022-11-15T12:21:30.871Z,17.83
2022-11-15T12:24:05.360Z,17.35
2022-11-15T12:26:39.140Z,17.02
2022-11-15T12:29:14.142Z,16.73
2022-11-15T12:31:45.738Z,17.14
2022-11-15T12:34:36.191Z,16.75
2022-11-15T12:37:24.354Z,16.82
2022-11-15T12:40:21.725Z,17.17
2022-11-15T12:43:19.099Z,17.10
2022-11-15T12:45:47.969Z,16.87
2022-11-15T12:48:57.409Z,17.07
2022-11-15T12:52:07.985Z,16.78
2022-11-15T12:55:20.703Z,16.66
2022-11-15T12:57:48.667Z,16.65
2022-11-15T13:00:48.178Z,16.91
2022-11-15T13:03:26.303Z,16.94
2022-11-15T13:06:00.612Z,17.18
2022-11-15T13:08:50.292Z,17.08
2022-11-15T13:11:47.535Z,17.07
2022-11-15T13:14:41.402Z,16.79
2022-11-15T13:17:34.408Z,17.00
2022-11-15T13:20:25.713Z,16.64
2022-11-15T13:23:03.123Z,16.61
2022-11-15T13:26:17.378Z,16.90
2022-11-15T13:28:49.461Z,16.75
2022-11-15T13:31:27.797Z,16.86
2022-11-15T13:33:59.134Z,16.92
2022-11-15T13:36:31.127Z,16.79
2022-11-15T13:39:01.618Z,16.35
2022-11-15T13:41:31.286Z,16.22
2022-11-15T13:44:00.766Z,16.63
2022-11-15T13:46:30.257Z,16.79
2022-11-15T13:49:00.088Z,16.90
2022-11-15T13:51:37.549Z,16.48
2022-11-15T13:54:15.275Z,16.55
2022-11-15T13:56:46.184Z,16.70
2022-11-15T13:59:20.556Z,16.66
2022-11-15T14:01:48.561Z,16.55
2022-11-15T14:04:21.409Z,16.55
2022-11-15T14:06:54.514Z,16.57
2022-11-15T14:09:41.214Z,16.53
2022-11-15T14:12:32.050Z,16.58
2022-11-15T14:15:01.165Z,16.50
2022-11-15T14:17:38.207Z,16.35
2022-11-15T14:20:22.845Z,16.17
2022-11-15T14:22:56.639Z,16.00
2022-11-15T14:25:26.451Z,16.12
2022-11-15T14:28:12.195Z,16.25
2022-11-15T14:30:41.458Z,15.89
2022-11-15T14:33:22.688Z,15.85
2022-11-15T14:35:51.306Z,16.00
2022-11-15T14:38:21.167Z,15.97
2022-11-15T14:40:49.605Z,15.94
2022-11-15T14:43:17.816Z,15.88
2022-11-15T14:45:45.698Z,16.01
2022-11-15T14:48:13.621Z,15.98
2022-11-15T14:50:41.713Z,15.81
2022-11-15T14:53:14.314Z,15.62
2022-11-15T14:55:44.099Z,15.73
2022-11-15T14:58:12.434Z,15.80
2022-11-15T15:00:42.481Z,15.64
2022-11-15T15:03:10.701Z,15.51
2022-11-15T15:05:40.328Z,15.59
2022-11-15T15:08:09.216Z,15.41
2022-11-15T15:10:40.508Z,15.60
2022-11-15T15:13:18.644Z,15.46
2022-11-15T15:15:46.871Z,15.44
2022-11-15T15:18:14.817Z,15.42
2022-11-15T15:20:44.283Z,15.43
2022-11-15T15:23:18.140Z,15.33
2022-11-15T15:25:47.287Z,15.15
2022-11-15T15:28:17.232Z,15.13
2022-11-15T15:30:45.245Z,15.24
2022-11-15T15:33:13.127Z,15.17
2022-11-15T15:35:41.300Z,15.09
2022-11-15T15:38:12.966Z,15.06
2022-11-15T15:40:41.600Z,15.10
2022-11-15T15:43:10.301Z,14.81
2022-11-15T15:45:41.256Z,14.95
2022-11-15T15:48:13.254Z,14.94
2022-11-15T15:50:41.342Z,14.99
2022-11-15T15:53:09.323Z,14.67
2022-11-15T15:55:37.527Z,14.71
2022-11-15T15:58:06.399Z,14.77
2022-11-15T16:00:34.904Z,14.64
2022-11-15T16:03:04.279Z,14.52
2022-11-15T16:05:32.211Z,14.73
2022-11-15T16:08:00.413Z,14.52
2022-11-15T16:10:30.094Z,14.59
2022-11-15T16:12:59.290Z,14.57
2022-11-15T16:15:30.493Z,14.39
2022-11-15T16:18:00.329Z,14.36
2022-11-15T16:20:40.283Z,14.25
2022-11-15T16:23:10.581Z,14.22
2022-11-15T16:25:46.483Z,14.52
2022-11-15T16:28:19.976Z,14.19
2022-11-15T16:30:51.121Z,14.28
2022-11-15T16:33:23.372Z,13.99
2022-11-15T16:35:52.943Z,14.07
2022-11-15T16:38:21.104Z,14.19
2022-11-15T16:40:49.190Z,14.14
2022-11-15T16:43:17.191Z,14.09
2022-11-15T16:45:45.611Z,13.97
2022-11-15T16:48:23.643Z,13.92
2022-11-15T16:50:57.564Z,13.87
2022-11-15T16:53:25.777Z,13.73
2022-11-15T16:55:54.024Z,13.79
2022-11-15T16:58:21.958Z,13.69
2022-11-15T17:00:52.486Z,13.76
2022-11-15T17:03:20.915Z,13.50
2022-11-15T17:05:48.877Z,13.22
2022-11-15T17:08:20.809Z,13.43
2022-11-15T17:10:48.905Z,13.50
2022-11-15T17:13:16.948Z,13.05
2022-11-15T17:15:44.937Z,13.30
2022-11-15T17:18:15.452Z,13.42
2022-11-15T17:20:43.919Z,13.33
2022-11-15T17:23:15.132Z,12.74
2022-11-15T17:25:45.697Z,12.94
2022-11-15T17:28:13.644Z,13.23
2022-11-15T17:30:44.666Z,13.30
2022-11-15T17:33:12.645Z,12.96
2022-11-15T17:35:40.627Z,12.27
2022-11-15T17:38:08.599Z,12.56
2022-11-15T17:40:36.548Z,12.58
2022-11-15T17:43:06.845Z,12.26
2022-11-15T17:45:35.186Z,12.35
2022-11-15T17:48:03.175Z,11.98
2022-11-15T17:50:31.126Z,12.10
2022-11-15T17:53:00.370Z,12.49
2022-11-15T17:55:28.422Z,12.11
2022-11-15T17:57:56.384Z,12.26
2022-11-15T18:00:25.968Z,12.42
2022-11-15T18:02:53.911Z,12.43
2022-11-15T18:05:21.979Z,12.20
2022-11-15T18:07:49.945Z,12.32
2022-11-15T18:10:18.149Z,12.42
2022-11-15T18:12:46.134Z,12.13
2022-11-15T18:15:14.066Z,12.48
2022-11-15T18:17:43.334Z,12.72
2022-11-15T18:20:11.946Z,12.22
2022-11-15T18:22:40.098Z,12.50
2022-11-15T18:25:08.915Z,12.28
2022-11-15T18:27:38.786Z,12.15
2022-11-15T18:30:07.816Z,12.38
2022-11-15T18:32:35.738Z,12.18
2022-11-15T18:35:06.528Z,12.44
2022-11-15T18:37:34.700Z,12.53
2022-11-15T18:40:02.665Z,12.23
2022-11-15T18:42:33.019Z,11.99
2022-11-15T18:45:01.829Z,11.92
2022-11-15T18:47:31.626Z,11.61
2022-11-15T18:49:59.724Z,11.85
2022-11-15T18:52:29.056Z,11.47
2022-11-15T18:54:56.979Z,11.61
2022-11-15T18:57:24.914Z,11.89
2022-11-15T18:59:52.874Z,11.83
2022-11-15T19:02:20.798Z,11.70
2022-11-15T19:04:48.706Z,11.59
2022-11-15T19:07:16.652Z,11.87
2022-11-15T19:09:46.692Z,11.76
2022-11-15T19:12:14.663Z,11.31
2022-11-15T19:14:42.630Z,11.57
2022-11-15T19:17:10.626Z,11.79
2022-11-15T19:19:38.574Z,11.47
2022-11-15T19:22:06.468Z,11.58
2022-11-15T19:24:34.413Z,11.47
2022-11-15T19:27:03.741Z,11.65
2022-11-15T19:29:31.639Z,11.58
2022-11-15T19:31:59.508Z,11.60
2022-11-15T19:34:27.468Z,11.44
2022-11-15T19:36:55.433Z,11.65
2022-11-15T19:39:46.610Z,11.36
2022-11-15T19:42:30.091Z,11.26
2022-11-15T19:44:58.049Z,11.21
2022-11-15T19:47:26.864Z,11.08
2022-11-15T19:49:55.214Z,10.28
2022-11-15T19:52:24.351Z,10.20
2022-11-15T19:54:52.366Z,10.09
2022-11-15T19:57:21.805Z,10.31
2022-11-15T19:59:49.855Z,10.77
2022-11-15T20:02:17.757Z,11.19
2022-11-15T20:04:45.746Z,10.85
2022-11-15T20:07:13.741Z,10.78
2022-11-15T20:09:41.846Z,10.63
2022-11-15T20:12:09.784Z,10.80
2022-11-15T20:14:39.536Z,11.13
2022-11-15T20:17:07.567Z,10.81
2022-11-15T20:19:35.509Z,11.25
2022-11-15T20:22:03.544Z,11.22
2022-11-15T20:24:31.507Z,10.77
2022-11-15T20:26:59.488Z,10.91
2022-11-15T20:29:27.428Z,10.97
2022-11-15T20:31:56.764Z,11.21
2022-11-15T20:34:24.814Z,11.26
2022-11-15T20:36:52.705Z,11.48
2022-11-15T20:39:20.614Z,11.46
2022-11-15T20:41:48.580Z,11.14
2022-11-15T20:44:16.486Z,11.33
2022-11-15T20:46:44.452Z,11.11
2022-11-15T20:49:13.784Z,11.17
2022-11-15T20:51:41.737Z,11.26
2022-11-15T20:54:10.162Z,11.27
2022-11-15T20:56:38.149Z,11.13
2022-11-15T20:59:06.183Z,11.06
2022-11-15T21:01:34.254Z,10.73
2022-11-15T21:04:02.319Z,10.93
2022-11-15T21:06:31.677Z,10.75
2022-11-15T21:09:16.976Z,10.96
2022-11-15T21:12:02.442Z,10.84
2022-11-15T21:14:30.699Z,10.80
2022-11-15T21:16:59.532Z,10.40
2022-11-15T21:19:32.635Z,10.41
2022-11-15T21:22:06.553Z,10.74
2022-11-15T21:24:34.565Z,10.47
2022-11-15T21:27:02.505Z,10.70
2022-11-15T21:29:37.423Z,10.76
2022-11-15T21:32:07.314Z,9.94
2022-11-15T21:34:35.508Z,10.08
2022-11-15T21:37:05.167Z,10.11
2022-11-15T21:39:33.083Z,10.22
2022-11-15T21:42:01.055Z,10.39
2022-11-15T21:44:30.100Z,10.74
2022-11-15T21:46:58.073Z,10.68
2022-11-15T21:49:26.141Z,10.74
2022-11-15T21:51:54.100Z,10.72
2022-11-15T21:54:23.452Z,10.50
2022-11-15T21:56:51.526Z,10.85
2022-11-15T21:59:19.739Z,10.82
2022-11-15T22:02:04.932Z,10.88
2022-11-15T22:04:32.869Z,10.76
2022-11-15T22:07:00.859Z,10.30
2022-11-15T22:09:30.275Z,10.31
2022-11-15T22:11:58.163Z,10.32
2022-11-15T22:14:26.123Z,10.43
2022-11-15T22:16:54.085Z,10.38
2022-11-15T22:19:22.619Z,10.46
2022-11-15T22:21:50.891Z,9.95
2022-11-15T22:24:19.219Z,9.83
2022-11-15T22:26:48.766Z,9.99
2022-11-15T22:29:16.899Z,9.71
2022-11-15T22:31:45.026Z,10.04
2022-11-15T22:34:13.151Z,10.14
2022-11-15T22:37:13.052Z,9.36
2022-11-15T22:39:33.417Z,9.64
2022-11-15T22:42:02.922Z,10.01
2022-11-15T22:44:30.999Z,10.03
2022-11-15T22:46:59.205Z,9.55
2022-11-15T22:49:27.439Z,8.98
2022-11-15T22:51:55.565Z,8.90
2022-11-15T22:54:23.688Z,9.19
2022-11-15T22:56:51.816Z,8.84
2022-11-15T22:59:21.248Z,8.67
2022-11-15T23:01:50.946Z,8.93
2022-11-15T23:04:19.044Z,9.27
2022-11-15T23:06:47.457Z,9.27
2022-11-15T23:09:15.555Z,8.84
2022-11-15T23:12:01.418Z,9.16
2022-11-15T23:14:31.024Z,9.02
2022-11-15T23:16:59.219Z,8.89
2022-11-15T23:19:27.418Z,8.65
2022-11-15T23:22:12.887Z,8.88
2022-11-15T23:24:41.006Z,9.16
2022-11-15T23:27:09.485Z,9.40
2022-11-15T23:29:52.859Z,9.02
2022-11-15T23:32:38.587Z,9.05
2022-11-15T23:35:07.403Z,8.90
2022-11-15T23:37:35.503Z,8.65
2022-11-15T23:40:03.638Z,8.81
2022-11-15T23:42:31.832Z,8.97
2022-11-15T23:45:01.378Z,9.24
2022-11-15T23:47:29.567Z,8.37
2022-11-15T23:49:57.832Z,8.86
2022-11-15T23:52:26.041Z,8.49
2022-11-15T23:54:54.142Z,8.66
2022-11-15T23:57:23.282Z,8.74
2022-11-15T23:59:51.370Z,8.47
